sensor_id;sensor_type;location;lat;lon;timestamp;P1;durP1;ratioP1;P2;durP2;ratioP2
40827;SDS011;26549;50.918;5.338;2023-11-21T00:01:57;16.45;;;8.65;;
40827;SDS011;26549;50.918;5.338;2023-11-21T00:04:23;20.88;;;9.80;;
40827;SDS011;26549;50.918;5.338;2023-11-21T00:06:49;18.55;;;9.77;;
40827;SDS011;26549;50.918;5.338;2023-11-21T00:09:15;19.17;;;9.15;;
40827;SDS011;26549;50.918;5.338;2023-11-21T00:11:42;20.52;;;10.13;;
40827;SDS011;26549;50.918;5.338;2023-11-21T00:14:09;18.05;;;9.38;;
40827;SDS011;26549;50.918;5.338;2023-11-21T00:16:35;21.13;;;10.60;;
40827;SDS011;26549;50.918;5.338;2023-11-21T00:19:01;19.48;;;9.80;;
40827;SDS011;26549;50.918;5.338;2023-11-21T00:21:27;18.00;;;9.88;;
40827;SDS011;26549;50.918;5.338;2023-11-21T00:23:53;16.52;;;8.85;;
40827;SDS011;26549;50.918;5.338;2023-11-21T00:26:19;18.55;;;9.20;;
40827;SDS011;26549;50.918;5.338;2023-11-21T00:28:45;20.95;;;11.15;;
40827;SDS011;26549;50.918;5.338;2023-11-21T00:31:10;23.40;;;10.27;;
40827;SDS011;26549;50.918;5.338;2023-11-21T00:33:36;17.40;;;9.65;;
40827;SDS011;26549;50.918;5.338;2023-11-21T00:36:02;19.48;;;9.48;;
40827;SDS011;26549;50.918;5.338;2023-11-21T00:38:28;21.00;;;10.52;;
40827;SDS011;26549;50.918;5.338;2023-11-21T00:40:54;19.08;;;10.75;;
40827;SDS011;26549;50.918;5.338;2023-11-21T00:43:24;17.33;;;8.40;;
40827;SDS011;26549;50.918;5.338;2023-11-21T00:45:50;18.73;;;9.43;;
40827;SDS011;26549;50.918;5.338;2023-11-21T00:48:16;18.75;;;9.63;;
40827;SDS011;26549;50.918;5.338;2023-11-21T00:50:43;22.58;;;10.05;;
40827;SDS011;26549;50.918;5.338;2023-11-21T00:53:09;17.67;;;9.50;;
40827;SDS011;26549;50.918;5.338;2023-11-21T00:55:36;17.58;;;10.18;;
40827;SDS011;26549;50.918;5.338;2023-11-21T00:58:02;18.48;;;10.25;;
40827;SDS011;26549;50.918;5.338;2023-11-21T01:00:30;20.75;;;10.00;;
40827;SDS011;26549;50.918;5.338;2023-11-21T01:02:56;16.20;;;9.68;;
40827;SDS011;26549;50.918;5.338;2023-11-21T01:05:21;19.02;;;9.77;;
40827;SDS011;26549;50.918;5.338;2023-11-21T01:07:47;19.10;;;9.50;;
40827;SDS011;26549;50.918;5.338;2023-11-21T01:10:13;19.25;;;9.25;;
40827;SDS011;26549;50.918;5.338;2023-11-21T01:12:39;15.85;;;9.32;;
40827;SDS011;26549;50.918;5.338;2023-11-21T01:15:05;14.75;;;8.80;;
40827;SDS011;26549;50.918;5.338;2023-11-21T01:17:37;16.13;;;9.10;;
40827;SDS011;26549;50.918;5.338;2023-11-21T01:20:04;17.38;;;9.05;;
40827;SDS011;26549;50.918;5.338;2023-11-21T01:22:37;16.77;;;9.27;;
40827;SDS011;26549;50.918;5.338;2023-11-21T01:25:04;17.08;;;10.70;;
40827;SDS011;26549;50.918;5.338;2023-11-21T01:27:32;17.83;;;9.00;;
40827;SDS011;26549;50.918;5.338;2023-11-21T01:30:04;15.80;;;9.00;;
40827;SDS011;26549;50.918;5.338;2023-11-21T01:32:32;18.83;;;9.60;;
40827;SDS011;26549;50.918;5.338;2023-11-21T01:34:59;15.82;;;9.90;;
40827;SDS011;26549;50.918;5.338;2023-11-21T01:37:25;19.17;;;9.25;;
40827;SDS011;26549;50.918;5.338;2023-11-21T01:39:53;20.35;;;9.65;;
40827;SDS011;26549;50.918;5.338;2023-11-21T01:42:20;19.08;;;10.10;;
40827;SDS011;26549;50.918;5.338;2023-11-21T01:44:46;19.35;;;10.25;;
40827;SDS011;26549;50.918;5.338;2023-11-21T01:47:12;20.85;;;11.25;;
40827;SDS011;26549;50.918;5.338;2023-11-21T01:49:39;20.27;;;10.20;;
40827;SDS011;26549;50.918;5.338;2023-11-21T01:52:05;18.08;;;9.45;;
40827;SDS011;26549;50.918;5.338;2023-11-21T01:54:31;16.75;;;9.55;;
40827;SDS011;26549;50.918;5.338;2023-11-21T01:56:58;20.23;;;10.70;;
40827;SDS011;26549;50.918;5.338;2023-11-21T01:59:29;15.43;;;9.75;;
40827;SDS011;26549;50.918;5.338;2023-11-21T02:02:02;20.75;;;10.38;;
40827;SDS011;26549;50.918;5.338;2023-11-21T02:04:32;18.23;;;10.07;;
40827;SDS011;26549;50.918;5.338;2023-11-21T02:06:59;20.40;;;11.57;;
40827;SDS011;26549;50.918;5.338;2023-11-21T02:09:28;19.42;;;9.68;;
40827;SDS011;26549;50.918;5.338;2023-11-21T02:11:57;21.10;;;11.10;;
40827;SDS011;26549;50.918;5.338;2023-11-21T02:14:25;20.65;;;11.52;;
40827;SDS011;26549;50.918;5.338;2023-11-21T02:16:52;22.38;;;11.43;;
40827;SDS011;26549;50.918;5.338;2023-11-21T02:19:20;26.80;;;11.82;;
40827;SDS011;26549;50.918;5.338;2023-11-21T02:21:49;51.33;;;13.57;;
40827;SDS011;26549;50.918;5.338;2023-11-21T02:24:20;22.00;;;11.05;;
40827;SDS011;26549;50.918;5.338;2023-11-21T02:26:46;28.88;;;12.55;;
40827;SDS011;26549;50.918;5.338;2023-11-21T02:29:12;22.95;;;11.77;;
40827;SDS011;26549;50.918;5.338;2023-11-21T02:31:38;28.80;;;13.02;;
40827;SDS011;26549;50.918;5.338;2023-11-21T02:34:15;31.42;;;15.18;;
40827;SDS011;26549;50.918;5.338;2023-11-21T02:36:42;29.95;;;13.38;;
40827;SDS011;26549;50.918;5.338;2023-11-21T02:39:09;31.35;;;14.02;;
40827;SDS011;26549;50.918;5.338;2023-11-21T02:41:36;30.25;;;12.73;;
40827;SDS011;26549;50.918;5.338;2023-11-21T02:44:04;27.05;;;12.73;;
40827;SDS011;26549;50.918;5.338;2023-11-21T02:46:33;29.83;;;14.30;;
40827;SDS011;26549;50.918;5.338;2023-11-21T02:49:02;25.27;;;12.93;;
40827;SDS011;26549;50.918;5.338;2023-11-21T02:51:29;28.15;;;13.68;;
40827;SDS011;26549;50.918;5.338;2023-11-21T02:53:56;29.70;;;13.52;;
40827;SDS011;26549;50.918;5.338;2023-11-21T02:56:26;32.72;;;14.95;;
40827;SDS011;26549;50.918;5.338;2023-11-21T02:58:52;24.20;;;12.65;;
40827;SDS011;26549;50.918;5.338;2023-11-21T03:01:20;28.27;;;14.38;;
40827;SDS011;26549;50.918;5.338;2023-11-21T03:03:46;29.17;;;14.55;;
40827;SDS011;26549;50.918;5.338;2023-11-21T03:06:12;27.63;;;14.05;;
40827;SDS011;26549;50.918;5.338;2023-11-21T03:08:38;28.00;;;13.70;;
40827;SDS011;26549;50.918;5.338;2023-11-21T03:11:04;34.05;;;15.77;;
40827;SDS011;26549;50.918;5.338;2023-11-21T03:13:29;35.55;;;15.95;;
40827;SDS011;26549;50.918;5.338;2023-11-21T03:15:55;36.95;;;16.70;;
40827;SDS011;26549;50.918;5.338;2023-11-21T03:18:21;35.28;;;17.98;;
40827;SDS011;26549;50.918;5.338;2023-11-21T03:20:47;33.20;;;15.50;;
40827;SDS011;26549;50.918;5.338;2023-11-21T03:23:13;35.95;;;16.02;;
40827;SDS011;26549;50.918;5.338;2023-11-21T03:25:40;31.35;;;16.70;;
40827;SDS011;26549;50.918;5.338;2023-11-21T03:28:05;35.22;;;17.30;;
40827;SDS011;26549;50.918;5.338;2023-11-21T03:30:33;36.10;;;16.23;;
40827;SDS011;26549;50.918;5.338;2023-11-21T03:32:59;33.88;;;15.70;;
40827;SDS011;26549;50.918;5.338;2023-11-21T03:35:25;33.47;;;15.73;;
40827;SDS011;26549;50.918;5.338;2023-11-21T03:37:51;34.72;;;16.33;;
40827;SDS011;26549;50.918;5.338;2023-11-21T03:40:17;35.22;;;18.17;;
40827;SDS011;26549;50.918;5.338;2023-11-21T03:42:42;38.42;;;15.70;;
40827;SDS011;26549;50.918;5.338;2023-11-21T03:45:08;31.90;;;15.05;;
40827;SDS011;26549;50.918;5.338;2023-11-21T03:47:34;34.50;;;18.58;;
40827;SDS011;26549;50.918;5.338;2023-11-21T03:50:00;34.90;;;19.23;;
40827;SDS011;26549;50.918;5.338;2023-11-21T03:52:26;39.17;;;19.15;;
40827;SDS011;26549;50.918;5.338;2023-11-21T03:54:53;37.20;;;17.92;;
40827;SDS011;26549;50.918;5.338;2023-11-21T03:57:20;37.67;;;15.98;;
40827;SDS011;26549;50.918;5.338;2023-11-21T03:59:46;40.53;;;18.88;;
40827;SDS011;26549;50.918;5.338;2023-11-21T04:02:12;36.85;;;18.00;;
40827;SDS011;26549;50.918;5.338;2023-11-21T04:04:39;35.00;;;17.85;;
40827;SDS011;26549;50.918;5.338;2023-11-21T04:07:05;39.95;;;17.60;;
40827;SDS011;26549;50.918;5.338;2023-11-21T04:09:31;41.95;;;18.70;;
40827;SDS011;26549;50.918;5.338;2023-11-21T04:11:57;40.80;;;18.77;;
40827;SDS011;26549;50.918;5.338;2023-11-21T04:14:24;48.17;;;19.80;;
40827;SDS011;26549;50.918;5.338;2023-11-21T04:16:49;37.63;;;17.10;;
40827;SDS011;26549;50.918;5.338;2023-11-21T04:19:15;37.70;;;15.63;;
40827;SDS011;26549;50.918;5.338;2023-11-21T04:21:42;30.52;;;16.08;;
40827;SDS011;26549;50.918;5.338;2023-11-21T04:24:08;31.52;;;15.57;;
40827;SDS011;26549;50.918;5.338;2023-11-21T04:26:34;32.55;;;15.05;;
40827;SDS011;26549;50.918;5.338;2023-11-21T04:28:59;32.15;;;15.93;;
40827;SDS011;26549;50.918;5.338;2023-11-21T04:31:26;32.33;;;14.05;;
40827;SDS011;26549;50.918;5.338;2023-11-21T04:33:52;34.53;;;15.95;;
40827;SDS011;26549;50.918;5.338;2023-11-21T04:36:18;31.73;;;14.77;;
40827;SDS011;26549;50.918;5.338;2023-11-21T04:38:44;32.92;;;16.33;;
40827;SDS011;26549;50.918;5.338;2023-11-21T04:41:10;38.53;;;14.93;;
40827;SDS011;26549;50.918;5.338;2023-11-21T04:43:37;27.27;;;12.98;;
40827;SDS011;26549;50.918;5.338;2023-11-21T04:46:02;34.90;;;13.50;;
40827;SDS011;26549;50.918;5.338;2023-11-21T04:48:28;33.70;;;14.85;;
40827;SDS011;26549;50.918;5.338;2023-11-21T04:50:54;29.52;;;11.90;;
40827;SDS011;26549;50.918;5.338;2023-11-21T04:53:19;37.53;;;14.02;;
40827;SDS011;26549;50.918;5.338;2023-11-21T04:55:45;30.40;;;13.65;;
40827;SDS011;26549;50.918;5.338;2023-11-21T04:58:11;39.38;;;15.95;;
40827;SDS011;26549;50.918;5.338;2023-11-21T05:00:37;41.00;;;16.58;;
40827;SDS011;26549;50.918;5.338;2023-11-21T05:03:03;37.60;;;16.75;;
40827;SDS011;26549;50.918;5.338;2023-11-21T05:05:30;40.60;;;17.25;;
40827;SDS011;26549;50.918;5.338;2023-11-21T05:07:56;39.97;;;15.60;;
40827;SDS011;26549;50.918;5.338;2023-11-21T05:10:21;33.60;;;15.98;;
40827;SDS011;26549;50.918;5.338;2023-11-21T05:12:47;36.88;;;15.27;;
40827;SDS011;26549;50.918;5.338;2023-11-21T05:15:15;30.33;;;15.07;;
40827;SDS011;26549;50.918;5.338;2023-11-21T05:17:46;36.20;;;14.20;;
40827;SDS011;26549;50.918;5.338;2023-11-21T05:20:15;39.50;;;16.45;;
40827;SDS011;26549;50.918;5.338;2023-11-21T05:22:46;36.83;;;15.18;;
40827;SDS011;26549;50.918;5.338;2023-11-21T05:25:13;37.28;;;15.00;;
40827;SDS011;26549;50.918;5.338;2023-11-21T05:27:39;38.70;;;13.68;;
40827;SDS011;26549;50.918;5.338;2023-11-21T05:30:05;38.42;;;16.60;;
40827;SDS011;26549;50.918;5.338;2023-11-21T05:32:31;35.63;;;15.98;;
40827;SDS011;26549;50.918;5.338;2023-11-21T05:34:58;36.78;;;17.50;;
40827;SDS011;26549;50.918;5.338;2023-11-21T05:37:24;38.85;;;15.77;;
40827;SDS011;26549;50.918;5.338;2023-11-21T05:39:52;33.47;;;13.07;;
40827;SDS011;26549;50.918;5.338;2023-11-21T05:42:19;37.90;;;14.32;;
40827;SDS011;26549;50.918;5.338;2023-11-21T05:44:46;33.75;;;14.57;;
40827;SDS011;26549;50.918;5.338;2023-11-21T05:47:11;31.50;;;14.95;;
40827;SDS011;26549;50.918;5.338;2023-11-21T05:49:38;32.13;;;13.90;;
40827;SDS011;26549;50.918;5.338;2023-11-21T05:52:04;34.65;;;16.63;;
40827;SDS011;26549;50.918;5.338;2023-11-21T05:54:31;35.00;;;14.77;;
40827;SDS011;26549;50.918;5.338;2023-11-21T05:56:57;39.00;;;15.60;;
40827;SDS011;26549;50.918;5.338;2023-11-21T05:59:22;29.52;;;13.95;;
40827;SDS011;26549;50.918;5.338;2023-11-21T06:01:49;33.65;;;15.13;;
40827;SDS011;26549;50.918;5.338;2023-11-21T06:04:14;34.42;;;13.65;;
40827;SDS011;26549;50.918;5.338;2023-11-21T06:06:40;37.90;;;14.43;;
40827;SDS011;26549;50.918;5.338;2023-11-21T06:09:06;38.25;;;15.23;;
40827;SDS011;26549;50.918;5.338;2023-11-21T06:11:34;34.50;;;16.13;;
40827;SDS011;26549;50.918;5.338;2023-11-21T06:14:01;35.17;;;16.20;;
40827;SDS011;26549;50.918;5.338;2023-11-21T06:16:27;43.28;;;16.73;;
40827;SDS011;26549;50.918;5.338;2023-11-21T06:18:53;42.83;;;15.90;;
40827;SDS011;26549;50.918;5.338;2023-11-21T06:21:19;40.75;;;15.70;;
40827;SDS011;26549;50.918;5.338;2023-11-21T06:23:44;40.58;;;16.35;;
40827;SDS011;26549;50.918;5.338;2023-11-21T06:26:12;34.30;;;15.02;;
40827;SDS011;26549;50.918;5.338;2023-11-21T06:28:39;38.80;;;15.07;;
40827;SDS011;26549;50.918;5.338;2023-11-21T06:31:05;32.25;;;13.65;;
40827;SDS011;26549;50.918;5.338;2023-11-21T06:33:31;37.63;;;16.08;;
40827;SDS011;26549;50.918;5.338;2023-11-21T06:35:57;38.03;;;17.05;;
40827;SDS011;26549;50.918;5.338;2023-11-21T06:38:23;36.45;;;15.10;;
40827;SDS011;26549;50.918;5.338;2023-11-21T06:40:49;38.33;;;16.58;;
40827;SDS011;26549;50.918;5.338;2023-11-21T06:43:15;34.15;;;14.95;;
40827;SDS011;26549;50.918;5.338;2023-11-21T06:45:41;38.53;;;16.05;;
40827;SDS011;26549;50.918;5.338;2023-11-21T06:48:07;41.78;;;17.50;;
40827;SDS011;26549;50.918;5.338;2023-11-21T06:50:32;42.40;;;16.75;;
40827;SDS011;26549;50.918;5.338;2023-11-21T06:52:58;40.33;;;17.63;;
40827;SDS011;26549;50.918;5.338;2023-11-21T06:55:24;38.92;;;15.82;;
40827;SDS011;26549;50.918;5.338;2023-11-21T06:57:50;33.60;;;15.10;;
40827;SDS011;26549;50.918;5.338;2023-11-21T07:00:17;41.35;;;18.20;;
40827;SDS011;26549;50.918;5.338;2023-11-21T07:02:43;39.42;;;16.98;;
40827;SDS011;26549;50.918;5.338;2023-11-21T07:05:09;44.63;;;18.30;;
40827;SDS011;26549;50.918;5.338;2023-11-21T07:07:36;46.33;;;19.83;;
40827;SDS011;26549;50.918;5.338;2023-11-21T07:10:02;43.45;;;17.50;;
40827;SDS011;26549;50.918;5.338;2023-11-21T07:12:29;41.08;;;17.80;;
40827;SDS011;26549;50.918;5.338;2023-11-21T07:14:56;48.63;;;18.67;;
40827;SDS011;26549;50.918;5.338;2023-11-21T07:17:22;41.47;;;18.20;;
40827;SDS011;26549;50.918;5.338;2023-11-21T07:19:48;45.05;;;17.90;;
40827;SDS011;26549;50.918;5.338;2023-11-21T07:22:15;37.30;;;16.63;;
40827;SDS011;26549;50.918;5.338;2023-11-21T07:24:47;33.78;;;16.55;;
40827;SDS011;26549;50.918;5.338;2023-11-21T07:27:15;47.50;;;17.95;;
40827;SDS011;26549;50.918;5.338;2023-11-21T07:29:40;40.58;;;17.77;;
40827;SDS011;26549;50.918;5.338;2023-11-21T07:32:06;36.90;;;17.65;;
40827;SDS011;26549;50.918;5.338;2023-11-21T07:34:34;45.58;;;18.02;;
40827;SDS011;26549;50.918;5.338;2023-11-21T07:37:00;37.05;;;17.00;;
40827;SDS011;26549;50.918;5.338;2023-11-21T07:39:26;36.90;;;19.02;;
40827;SDS011;26549;50.918;5.338;2023-11-21T07:41:52;41.47;;;17.90;;
40827;SDS011;26549;50.918;5.338;2023-11-21T07:44:21;39.10;;;18.27;;
40827;SDS011;26549;50.918;5.338;2023-11-21T07:46:47;37.78;;;15.75;;
40827;SDS011;26549;50.918;5.338;2023-11-21T07:49:14;43.20;;;18.63;;
40827;SDS011;26549;50.918;5.338;2023-11-21T07:51:44;41.50;;;16.52;;
40827;SDS011;26549;50.918;5.338;2023-11-21T07:54:10;32.72;;;15.88;;
40827;SDS011;26549;50.918;5.338;2023-11-21T07:56:35;44.15;;;16.30;;
40827;SDS011;26549;50.918;5.338;2023-11-21T07:59:01;35.65;;;14.43;;
40827;SDS011;26549;50.918;5.338;2023-11-21T08:01:28;31.27;;;14.48;;
40827;SDS011;26549;50.918;5.338;2023-11-21T08:03:54;30.48;;;15.77;;
40827;SDS011;26549;50.918;5.338;2023-11-21T08:06:22;31.80;;;14.50;;
40827;SDS011;26549;50.918;5.338;2023-11-21T08:08:49;38.72;;;16.33;;
40827;SDS011;26549;50.918;5.338;2023-11-21T08:11:17;33.78;;;15.10;;
40827;SDS011;26549;50.918;5.338;2023-11-21T08:13:43;37.78;;;17.10;;
40827;SDS011;26549;50.918;5.338;2023-11-21T08:16:09;41.10;;;16.27;;
40827;SDS011;26549;50.918;5.338;2023-11-21T08:18:35;36.03;;;16.52;;
40827;SDS011;26549;50.918;5.338;2023-11-21T08:21:00;34.17;;;14.30;;
40827;SDS011;26549;50.918;5.338;2023-11-21T08:23:26;32.72;;;14.63;;
40827;SDS011;26549;50.918;5.338;2023-11-21T08:25:52;35.45;;;15.75;;
40827;SDS011;26549;50.918;5.338;2023-11-21T08:28:19;39.17;;;15.23;;
40827;SDS011;26549;50.918;5.338;2023-11-21T08:30:47;35.75;;;15.45;;
40827;SDS011;26549;50.918;5.338;2023-11-21T08:33:13;31.30;;;14.30;;
40827;SDS011;26549;50.918;5.338;2023-11-21T08:35:39;34.67;;;14.65;;
40827;SDS011;26549;50.918;5.338;2023-11-21T08:38:05;37.97;;;16.10;;
40827;SDS011;26549;50.918;5.338;2023-11-21T08:40:31;34.55;;;17.02;;
40827;SDS011;26549;50.918;5.338;2023-11-21T08:42:57;39.05;;;14.65;;
40827;SDS011;26549;50.918;5.338;2023-11-21T08:45:23;32.38;;;15.07;;
40827;SDS011;26549;50.918;5.338;2023-11-21T08:47:51;34.45;;;15.82;;
40827;SDS011;26549;50.918;5.338;2023-11-21T08:50:16;34.22;;;16.77;;
40827;SDS011;26549;50.918;5.338;2023-11-21T08:52:43;31.73;;;14.85;;
40827;SDS011;26549;50.918;5.338;2023-11-21T08:55:11;38.67;;;15.85;;
40827;SDS011;26549;50.918;5.338;2023-11-21T08:57:40;31.23;;;14.93;;
40827;SDS011;26549;50.918;5.338;2023-11-21T09:00:09;33.53;;;14.30;;
40827;SDS011;26549;50.918;5.338;2023-11-21T09:02:40;35.17;;;15.65;;
40827;SDS011;26549;50.918;5.338;2023-11-21T09:05:09;33.50;;;15.60;;
40827;SDS011;26549;50.918;5.338;2023-11-21T09:07:36;30.05;;;16.13;;
40827;SDS011;26549;50.918;5.338;2023-11-21T09:10:03;24.05;;;14.50;;
40827;SDS011;26549;50.918;5.338;2023-11-21T09:12:33;28.70;;;14.50;;
40827;SDS011;26549;50.918;5.338;2023-11-21T09:15:00;36.35;;;15.07;;
40827;SDS011;26549;50.918;5.338;2023-11-21T09:17:27;31.45;;;14.75;;
40827;SDS011;26549;50.918;5.338;2023-11-21T09:19:55;27.70;;;12.75;;
40827;SDS011;26549;50.918;5.338;2023-11-21T09:22:23;27.80;;;12.15;;
40827;SDS011;26549;50.918;5.338;2023-11-21T09:24:52;27.23;;;13.05;;
40827;SDS011;26549;50.918;5.338;2023-11-21T09:27:18;27.00;;;12.30;;
40827;SDS011;26549;50.918;5.338;2023-11-21T09:29:46;20.77;;;11.75;;
40827;SDS011;26549;50.918;5.338;2023-11-21T09:32:14;20.50;;;10.43;;
40827;SDS011;26549;50.918;5.338;2023-11-21T09:34:41;28.85;;;13.63;;
40827;SDS011;26549;50.918;5.338;2023-11-21T09:37:07;23.88;;;11.50;;
40827;SDS011;26549;50.918;5.338;2023-11-21T09:39:33;21.52;;;11.23;;
40827;SDS011;26549;50.918;5.338;2023-11-21T09:42:04;26.27;;;11.25;;
40827;SDS011;26549;50.918;5.338;2023-11-21T09:47:35;24.00;;;12.70;;
40827;SDS011;26549;50.918;5.338;2023-11-21T09:55:26;18.95;;;10.50;;
40827;SDS011;26549;50.918;5.338;2023-11-21T09:57:57;23.13;;;11.77;;
40827;SDS011;26549;50.918;5.338;2023-11-21T10:00:24;19.77;;;10.55;;
40827;SDS011;26549;50.918;5.338;2023-11-21T10:02:55;20.67;;;10.82;;
40827;SDS011;26549;50.918;5.338;2023-11-21T10:05:26;21.50;;;10.95;;
40827;SDS011;26549;50.918;5.338;2023-11-21T10:07:55;19.75;;;9.73;;
40827;SDS011;26549;50.918;5.338;2023-11-21T10:10:25;20.95;;;10.43;;
40827;SDS011;26549;50.918;5.338;2023-11-21T10:15:27;20.52;;;11.05;;
40827;SDS011;26549;50.918;5.338;2023-11-21T10:17:57;18.90;;;10.48;;
40827;SDS011;26549;50.918;5.338;2023-11-21T10:20:24;20.48;;;10.40;;
40827;SDS011;26549;50.918;5.338;2023-11-21T10:22:52;16.55;;;9.70;;
40827;SDS011;26549;50.918;5.338;2023-11-21T10:25:21;18.58;;;9.15;;
40827;SDS011;26549;50.918;5.338;2023-11-21T10:27:48;16.05;;;9.57;;
40827;SDS011;26549;50.918;5.338;2023-11-21T10:30:18;18.65;;;10.13;;
40827;SDS011;26549;50.918;5.338;2023-11-21T10:32:47;23.08;;;9.80;;
40827;SDS011;26549;50.918;5.338;2023-11-21T10:35:13;15.40;;;8.93;;
40827;SDS011;26549;50.918;5.338;2023-11-21T10:37:41;23.50;;;10.50;;
40827;SDS011;26549;50.918;5.338;2023-11-21T10:42:42;19.17;;;9.95;;
40827;SDS011;26549;50.918;5.338;2023-11-21T10:45:09;17.95;;;9.48;;
40827;SDS011;26549;50.918;5.338;2023-11-21T10:47:39;17.73;;;9.27;;
40827;SDS011;26549;50.918;5.338;2023-11-21T10:50:05;18.08;;;9.18;;
40827;SDS011;26549;50.918;5.338;2023-11-21T10:52:42;17.35;;;8.82;;
40827;SDS011;26549;50.918;5.338;2023-11-21T10:57:52;16.98;;;9.23;;
40827;SDS011;26549;50.918;5.338;2023-11-21T11:00:21;18.15;;;8.68;;
40827;SDS011;26549;50.918;5.338;2023-11-21T11:02:50;18.25;;;9.77;;
40827;SDS011;26549;50.918;5.338;2023-11-21T11:05:19;19.98;;;9.77;;
40827;SDS011;26549;50.918;5.338;2023-11-21T11:08:05;15.05;;;9.60;;
40827;SDS011;26549;50.918;5.338;2023-11-21T11:10:35;22.02;;;10.55;;
40827;SDS011;26549;50.918;5.338;2023-11-21T11:13:03;18.33;;;10.27;;
40827;SDS011;26549;50.918;5.338;2023-11-21T11:15:31;20.55;;;8.57;;
40827;SDS011;26549;50.918;5.338;2023-11-21T11:17:59;15.82;;;8.27;;
40827;SDS011;26549;50.918;5.338;2023-11-21T11:20:30;15.82;;;8.13;;
40827;SDS011;26549;50.918;5.338;2023-11-21T11:25:44;17.38;;;8.35;;
40827;SDS011;26549;50.918;5.338;2023-11-21T11:28:20;15.77;;;9.65;;
40827;SDS011;26549;50.918;5.338;2023-11-21T11:33:45;15.63;;;8.50;;
40827;SDS011;26549;50.918;5.338;2023-11-21T11:36:19;16.63;;;8.05;;
40827;SDS011;26549;50.918;5.338;2023-11-21T11:42:17;12.75;;;7.70;;
40827;SDS011;26549;50.918;5.338;2023-11-21T11:44:47;16.20;;;7.88;;
40827;SDS011;26549;50.918;5.338;2023-11-21T11:55:10;16.17;;;9.43;;
40827;SDS011;26549;50.918;5.338;2023-11-21T11:57:43;16.45;;;8.88;;
40827;SDS011;26549;50.918;5.338;2023-11-21T12:00:22;20.05;;;11.57;;
40827;SDS011;26549;50.918;5.338;2023-11-21T12:03:02;23.15;;;12.43;;
40827;SDS011;26549;50.918;5.338;2023-11-21T12:05:29;21.08;;;11.40;;
40827;SDS011;26549;50.918;5.338;2023-11-21T12:08:04;22.77;;;11.82;;
40827;SDS011;26549;50.918;5.338;2023-11-21T12:13:02;17.52;;;10.05;;
40827;SDS011;26549;50.918;5.338;2023-11-21T12:15:34;20.80;;;10.43;;
40827;SDS011;26549;50.918;5.338;2023-11-21T12:18:02;20.15;;;10.57;;
40827;SDS011;26549;50.918;5.338;2023-11-21T12:20:30;20.23;;;10.60;;
40827;SDS011;26549;50.918;5.338;2023-11-21T12:22:59;19.13;;;10.90;;
40827;SDS011;26549;50.918;5.338;2023-11-21T12:25:29;21.55;;;10.90;;
40827;SDS011;26549;50.918;5.338;2023-11-21T12:28:02;18.67;;;11.20;;
40827;SDS011;26549;50.918;5.338;2023-11-21T12:30:31;18.30;;;11.07;;
40827;SDS011;26549;50.918;5.338;2023-11-21T12:33:00;18.45;;;10.73;;
40827;SDS011;26549;50.918;5.338;2023-11-21T12:38:01;19.02;;;10.88;;
40827;SDS011;26549;50.918;5.338;2023-11-21T12:40:29;18.23;;;10.38;;
40827;SDS011;26549;50.918;5.338;2023-11-21T12:42:59;18.13;;;10.43;;
40827;SDS011;26549;50.918;5.338;2023-11-21T12:45:32;18.80;;;10.13;;
40827;SDS011;26549;50.918;5.338;2023-11-21T12:48:04;18.50;;;9.52;;
40827;SDS011;26549;50.918;5.338;2023-11-21T12:50:36;17.00;;;9.23;;
40827;SDS011;26549;50.918;5.338;2023-11-21T12:53:06;17.70;;;10.00;;
40827;SDS011;26549;50.918;5.338;2023-11-21T12:55:44;17.05;;;9.02;;
40827;SDS011;26549;50.918;5.338;2023-11-21T13:03:19;16.50;;;9.65;;
40827;SDS011;26549;50.918;5.338;2023-11-21T13:05:51;20.40;;;11.13;;
40827;SDS011;26549;50.918;5.338;2023-11-21T13:08:24;16.27;;;10.20;;
40827;SDS011;26549;50.918;5.338;2023-11-21T13:10:55;22.33;;;11.00;;
40827;SDS011;26549;50.918;5.338;2023-11-21T13:15:56;22.13;;;11.07;;
40827;SDS011;26549;50.918;5.338;2023-11-21T13:18:27;23.70;;;12.07;;
40827;SDS011;26549;50.918;5.338;2023-11-21T13:23:26;23.85;;;12.50;;
40827;SDS011;26549;50.918;5.338;2023-11-21T13:25:57;23.67;;;12.32;;
40827;SDS011;26549;50.918;5.338;2023-11-21T13:28:24;24.60;;;11.95;;
40827;SDS011;26549;50.918;5.338;2023-11-21T13:30:59;22.50;;;13.32;;
40827;SDS011;26549;50.918;5.338;2023-11-21T13:33:35;25.67;;;13.07;;
40827;SDS011;26549;50.918;5.338;2023-11-21T13:36:04;23.42;;;13.23;;
40827;SDS011;26549;50.918;5.338;2023-11-21T13:38:34;23.85;;;13.20;;
40827;SDS011;26549;50.918;5.338;2023-11-21T13:41:05;21.02;;;11.52;;
40827;SDS011;26549;50.918;5.338;2023-11-21T13:43:33;24.98;;;12.32;;
40827;SDS011;26549;50.918;5.338;2023-11-21T13:45:59;22.90;;;13.13;;
40827;SDS011;26549;50.918;5.338;2023-11-21T13:48:29;25.17;;;11.85;;
40827;SDS011;26549;50.918;5.338;2023-11-21T13:51:06;20.05;;;11.43;;
40827;SDS011;26549;50.918;5.338;2023-11-21T13:53:42;19.13;;;10.73;;
40827;SDS011;26549;50.918;5.338;2023-11-21T13:56:11;17.95;;;10.25;;
40827;SDS011;26549;50.918;5.338;2023-11-21T13:58:41;15.73;;;9.55;;
40827;SDS011;26549;50.918;5.338;2023-11-21T14:01:12;14.07;;;8.27;;
40827;SDS011;26549;50.918;5.338;2023-11-21T14:03:58;17.15;;;10.45;;
40827;SDS011;26549;50.918;5.338;2023-11-21T14:06:50;14.90;;;9.05;;
40827;SDS011;26549;50.918;5.338;2023-11-21T14:09:20;15.68;;;8.70;;
40827;SDS011;26549;50.918;5.338;2023-11-21T14:11:49;16.77;;;8.15;;
40827;SDS011;26549;50.918;5.338;2023-11-21T14:14:17;15.45;;;7.85;;
40827;SDS011;26549;50.918;5.338;2023-11-21T14:16:43;15.05;;;9.35;;
40827;SDS011;26549;50.918;5.338;2023-11-21T14:19:09;16.00;;;8.95;;
40827;SDS011;26549;50.918;5.338;2023-11-21T14:21:41;15.77;;;9.00;;
40827;SDS011;26549;50.918;5.338;2023-11-21T14:24:08;19.92;;;8.52;;
40827;SDS011;26549;50.918;5.338;2023-11-21T14:26:34;15.93;;;8.52;;
40827;SDS011;26549;50.918;5.338;2023-11-21T14:29:00;15.77;;;8.60;;
40827;SDS011;26549;50.918;5.338;2023-11-21T14:31:27;13.35;;;6.82;;
40827;SDS011;26549;50.918;5.338;2023-11-21T14:33:56;17.98;;;8.23;;
40827;SDS011;26549;50.918;5.338;2023-11-21T14:36:22;13.98;;;8.25;;
40827;SDS011;26549;50.918;5.338;2023-11-21T14:38:49;13.30;;;8.18;;
40827;SDS011;26549;50.918;5.338;2023-11-21T14:41:17;15.63;;;9.45;;
40827;SDS011;26549;50.918;5.338;2023-11-21T14:43:43;13.10;;;7.53;;
40827;SDS011;26549;50.918;5.338;2023-11-21T14:46:10;15.43;;;8.35;;
40827;SDS011;26549;50.918;5.338;2023-11-21T14:48:41;16.58;;;8.10;;
40827;SDS011;26549;50.918;5.338;2023-11-21T14:51:12;12.73;;;8.45;;
40827;SDS011;26549;50.918;5.338;2023-11-21T14:53:55;14.93;;;9.57;;
40827;SDS011;26549;50.918;5.338;2023-11-21T14:56:25;12.48;;;8.25;;
40827;SDS011;26549;50.918;5.338;2023-11-21T14:58:55;13.55;;;8.57;;
40827;SDS011;26549;50.918;5.338;2023-11-21T15:01:26;13.93;;;8.95;;
40827;SDS011;26549;50.918;5.338;2023-11-21T15:04:30;12.80;;;7.90;;
40827;SDS011;26549;50.918;5.338;2023-11-21T15:07:03;15.02;;;7.93;;
40827;SDS011;26549;50.918;5.338;2023-11-21T15:09:29;18.98;;;9.30;;
40827;SDS011;26549;50.918;5.338;2023-11-21T15:12:06;16.15;;;8.25;;
40827;SDS011;26549;50.918;5.338;2023-11-21T15:14:42;17.73;;;7.95;;
40827;SDS011;26549;50.918;5.338;2023-11-21T15:17:12;12.15;;;7.15;;
40827;SDS011;26549;50.918;5.338;2023-11-21T15:19:47;13.75;;;8.32;;